createdAt,value
2023-04-16T00:01:46.767Z,30.40
2023-04-16T00:04:13.438Z,35.90
2023-04-16T00:06:40.080Z,31.60
2023-04-16T00:09:07.505Z,30.50
2023-04-16T00:11:35.085Z,31.60
2023-04-16T00:14:01.719Z,32.00
2023-04-16T00:16:28.486Z,29.60
2023-04-16T00:18:55.007Z,35.20
2023-04-16T00:21:21.572Z,30.20
2023-04-16T00:23:48.205Z,28.60
2023-04-16T00:26:15.473Z,28.00
2023-04-16T00:28:42.140Z,26.30
2023-04-16T00:31:08.709Z,28.80
2023-04-16T00:33:35.467Z,28.50
2023-04-16T00:36:02.291Z,25.20
2023-04-16T00:38:29.808Z,24.00
2023-04-16T00:40:59.387Z,27.10
2023-04-16T00:43:26.651Z,26.20
2023-04-16T00:45:56.644Z,30.90
2023-04-16T00:48:24.222Z,26.10
2023-04-16T00:50:50.914Z,28.40
2023-04-16T00:53:17.551Z,31.60
2023-04-16T00:55:45.574Z,26.90
2023-04-16T00:58:12.419Z,29.40
2023-04-16T01:00:39.049Z,29.40
2023-04-16T01:03:05.956Z,30.00
2023-04-16T01:05:32.845Z,27.40
2023-04-16T01:08:00.611Z,28.40
2023-04-16T01:10:27.301Z,22.00
2023-04-16T01:12:53.921Z,26.00
2023-04-16T01:15:20.482Z,25.40
2023-04-16T01:17:47.229Z,25.30
2023-04-16T01:20:14.259Z,26.00
2023-04-16T01:22:40.873Z,26.40
2023-04-16T01:25:08.329Z,25.30
2023-04-16T01:27:36.920Z,24.30
2023-04-16T01:30:04.489Z,22.70
2023-04-16T01:32:39.180Z,26.10
2023-04-16T01:35:06.278Z,21.10
2023-04-16T01:37:33.143Z,23.30
2023-04-16T01:39:59.721Z,26.70
2023-04-16T01:42:26.228Z,23.20
2023-04-16T01:44:52.855Z,28.20
2023-04-16T01:47:19.422Z,25.00
2023-04-16T01:49:47.549Z,21.90
2023-04-16T01:52:14.024Z,22.60
2023-04-16T01:54:40.655Z,25.80
2023-04-16T01:57:07.274Z,28.00
2023-04-16T01:59:33.996Z,28.40
2023-04-16T02:02:10.319Z,30.20
2023-04-16T02:04:38.783Z,24.60
2023-04-16T02:07:06.298Z,30.40
2023-04-16T02:09:37.716Z,30.40
2023-04-16T02:12:06.888Z,32.30
2023-04-16T02:14:33.616Z,36.90
2023-04-16T02:17:00.548Z,37.40
2023-04-16T02:19:38.973Z,45.20
2023-04-16T02:22:06.155Z,45.10
2023-04-16T02:24:32.847Z,43.40
2023-04-16T02:27:01.084Z,44.70
2023-04-16T02:29:28.013Z,50.20
2023-04-16T02:32:00.284Z,49.80
2023-04-16T02:34:27.359Z,49.80
2023-04-16T02:36:54.427Z,43.80
2023-04-16T02:39:21.560Z,50.00
2023-04-16T02:41:48.173Z,49.30
2023-04-16T02:44:15.039Z,44.60
2023-04-16T02:46:41.537Z,49.90
2023-04-16T02:49:08.320Z,44.60
2023-04-16T02:51:34.981Z,43.30
2023-04-16T02:54:02.496Z,47.90
2023-04-16T02:56:29.228Z,51.00
2023-04-16T02:58:55.895Z,49.00
2023-04-16T03:01:22.524Z,46.70
2023-04-16T03:03:49.205Z,49.80
2023-04-16T03:06:16.149Z,42.20
2023-04-16T03:08:42.645Z,49.10
2023-04-16T03:11:09.225Z,42.70
2023-04-16T03:13:36.013Z,40.40
2023-04-16T03:16:02.539Z,37.00
2023-04-16T03:18:29.356Z,35.90
2023-04-16T03:20:56.022Z,41.90
2023-04-16T03:23:22.552Z,42.80
2023-04-16T03:25:50.097Z,43.30
2023-04-16T03:28:18.289Z,45.70
2023-04-16T03:30:52.146Z,37.40
2023-04-16T03:33:20.385Z,36.40
2023-04-16T03:35:46.927Z,39.60
2023-04-16T03:38:13.797Z,41.20
2023-04-16T03:40:40.894Z,43.20
2023-04-16T03:43:07.415Z,42.90
2023-04-16T03:45:34.004Z,42.30
2023-04-16T03:48:00.640Z,41.90
2023-04-16T03:50:27.289Z,37.50
2023-04-16T03:52:53.910Z,40.40
2023-04-16T03:55:20.681Z,35.10
2023-04-16T03:57:47.289Z,39.50
2023-04-16T04:00:16.277Z,35.40
2023-04-16T04:03:02.466Z,32.80
2023-04-16T04:05:29.230Z,32.70
2023-04-16T04:07:55.934Z,31.50
2023-04-16T04:10:22.955Z,35.80
2023-04-16T04:12:50.202Z,36.00
2023-04-16T04:15:17.120Z,36.80
2023-04-16T04:17:43.700Z,36.70
2023-04-16T04:20:11.122Z,37.90
2023-04-16T04:22:37.701Z,36.30
2023-04-16T04:25:04.829Z,41.80
2023-04-16T04:27:32.100Z,42.30
2023-04-16T04:29:58.681Z,40.00
2023-04-16T04:32:25.399Z,42.40
2023-04-16T04:34:52.117Z,43.90
2023-04-16T04:37:18.639Z,35.80
2023-04-16T04:39:45.536Z,43.90
2023-04-16T04:42:12.209Z,43.20
2023-04-16T04:44:39.162Z,41.70
2023-04-16T04:47:07.629Z,38.50
2023-04-16T04:49:34.885Z,41.90
2023-04-16T04:52:03.247Z,37.10
2023-04-16T04:54:31.941Z,37.80
2023-04-16T04:56:58.682Z,35.10
2023-04-16T04:59:25.456Z,37.40
2023-04-16T05:01:52.642Z,36.80
2023-04-16T05:04:21.755Z,41.10
2023-04-16T05:06:48.236Z,40.20
2023-04-16T05:09:14.959Z,35.90
2023-04-16T05:11:41.684Z,39.80
2023-04-16T05:14:08.257Z,39.30
2023-04-16T05:16:37.775Z,39.40
2023-04-16T05:19:04.620Z,41.20
2023-04-16T05:21:31.161Z,42.80
2023-04-16T05:23:58.158Z,37.80
2023-04-16T05:26:24.688Z,41.20
2023-04-16T05:28:51.222Z,49.60
2023-04-16T05:31:17.845Z,45.30
2023-04-16T05:33:44.582Z,46.50
2023-04-16T05:36:11.135Z,46.60
2023-04-16T05:38:37.670Z,47.20
2023-04-16T05:41:04.340Z,45.30
2023-04-16T05:43:31.192Z,42.40
2023-04-16T05:45:57.768Z,45.90
2023-04-16T05:48:24.544Z,44.50
2023-04-16T05:50:51.153Z,46.10
2023-04-16T05:53:18.373Z,43.60
2023-04-16T05:55:46.077Z,38.80
2023-04-16T05:58:12.566Z,41.60
2023-04-16T06:00:39.779Z,47.30
2023-04-16T06:03:06.467Z,45.10
2023-04-16T06:05:33.325Z,45.00
2023-04-16T06:07:59.939Z,44.70
2023-04-16T06:10:26.707Z,46.70
2023-04-16T06:12:53.309Z,42.90
2023-04-16T06:15:19.906Z,42.30
2023-04-16T06:17:46.552Z,48.00
2023-04-16T06:20:13.192Z,44.80
2023-04-16T06:22:39.895Z,48.40
2023-04-16T06:25:06.760Z,46.50
2023-04-16T06:27:33.454Z,38.20
2023-04-16T06:30:00.233Z,36.80
2023-04-16T06:32:26.939Z,29.20
2023-04-16T06:34:53.654Z,31.50
2023-04-16T06:37:21.480Z,38.80
2023-04-16T06:39:47.972Z,37.20
2023-04-16T06:42:14.877Z,35.40
2023-04-16T06:44:41.419Z,35.10
2023-04-16T06:47:08.038Z,32.50
2023-04-16T06:49:34.986Z,29.40
2023-04-16T06:52:03.802Z,31.10
2023-04-16T06:54:31.863Z,31.00
2023-04-16T06:56:58.381Z,32.40
2023-04-16T06:59:24.910Z,39.40
2023-04-16T07:01:52.257Z,38.60
2023-04-16T07:04:18.976Z,40.80
2023-04-16T07:06:46.135Z,38.60
2023-04-16T07:09:12.676Z,31.90
2023-04-16T07:11:39.751Z,25.20
2023-04-16T07:14:06.545Z,31.40
2023-04-16T07:16:33.319Z,31.10
2023-04-16T07:18:59.877Z,28.70
2023-04-16T07:21:27.117Z,33.60
2023-04-16T07:23:53.930Z,29.60
2023-04-16T07:26:20.602Z,22.60
2023-04-16T07:28:47.164Z,30.40
2023-04-16T07:31:13.941Z,24.50
2023-04-16T07:33:40.638Z,25.40
2023-04-16T07:36:07.411Z,25.00
2023-04-16T07:38:34.136Z,21.00
2023-04-16T07:41:01.066Z,19.90
2023-04-16T07:43:27.627Z,17.70
2023-04-16T07:45:54.459Z,20.80
2023-04-16T07:48:21.504Z,22.60
2023-04-16T07:50:49.440Z,21.00
2023-04-16T07:53:16.530Z,15.80
2023-04-16T07:55:43.187Z,16.00
2023-04-16T07:58:10.210Z,12.70
2023-04-16T08:00:36.918Z,10.80
2023-04-16T08:03:03.713Z,12.60
2023-04-16T08:05:30.448Z,12.20
2023-04-16T08:07:56.996Z,8.90
2023-04-16T08:10:23.521Z,10.90
2023-04-16T08:12:50.221Z,11.20
2023-04-16T08:15:17.055Z,9.20
2023-04-16T08:17:44.267Z,8.30
2023-04-16T08:20:14.973Z,9.30
2023-04-16T08:22:45.208Z,10.20
2023-04-16T08:25:11.810Z,6.70
2023-04-16T08:27:38.329Z,6.80
2023-04-16T08:30:05.710Z,7.90
2023-04-16T08:32:32.417Z,7.10
2023-04-16T08:34:59.194Z,7.90
2023-04-16T08:37:26.079Z,8.70
2023-04-16T08:39:52.847Z,7.30
2023-04-16T08:42:50.465Z,6.50
2023-04-16T08:45:17.495Z,8.00
2023-04-16T08:47:50.223Z,7.80
2023-04-16T08:50:22.040Z,6.10
2023-04-16T08:52:56.094Z,6.40
2023-04-16T08:55:31.727Z,7.40
2023-04-16T08:57:59.711Z,7.30
2023-04-16T09:00:27.924Z,6.20
2023-04-16T09:02:55.252Z,5.30
2023-04-16T09:05:25.119Z,6.60
2023-04-16T09:07:54.020Z,5.10
2023-04-16T09:10:21.525Z,5.70
2023-04-16T09:12:48.161Z,7.10
2023-04-16T09:15:14.913Z,6.20
2023-04-16T09:17:41.575Z,6.60
2023-04-16T09:20:10.410Z,5.20
2023-04-16T09:22:39.454Z,5.40
2023-04-16T09:25:07.340Z,6.60
2023-04-16T09:27:34.049Z,6.40
2023-04-16T09:30:00.771Z,7.50
2023-04-16T09:32:28.429Z,6.80
2023-04-16T09:35:00.318Z,8.40
2023-04-16T09:37:31.694Z,5.60
2023-04-16T09:40:00.389Z,6.80
2023-04-16T09:42:32.627Z,7.70
2023-04-16T09:45:01.372Z,6.40
2023-04-16T09:47:49.452Z,6.20
2023-04-16T09:50:19.001Z,6.70
2023-04-16T09:52:52.018Z,5.90
2023-04-16T09:55:23.295Z,5.80
2023-04-16T09:57:58.029Z,7.40
2023-04-16T10:00:24.905Z,6.20
2023-04-16T10:03:04.129Z,7.40
2023-04-16T10:05:31.105Z,7.50
2023-04-16T10:08:01.509Z,7.00
2023-04-16T10:10:29.300Z,8.10
2023-04-16T10:12:55.998Z,8.60
2023-04-16T10:15:22.811Z,8.30
2023-04-16T10:17:50.508Z,6.50
2023-04-16T10:20:17.764Z,5.40
2023-04-16T10:22:44.556Z,4.80
2023-04-16T10:25:11.477Z,5.40
2023-04-16T10:27:40.105Z,4.20
2023-04-16T10:30:08.267Z,4.80
2023-04-16T10:32:36.281Z,4.60
2023-04-16T10:35:06.653Z,6.90
2023-04-16T10:37:34.205Z,6.10
2023-04-16T10:40:01.247Z,7.10
2023-04-16T10:42:28.037Z,10.00
2023-04-16T10:44:59.155Z,9.90
2023-04-16T10:47:26.094Z,8.30
2023-04-16T10:49:52.768Z,7.90
2023-04-16T10:52:21.960Z,7.90
2023-04-16T10:54:49.901Z,8.20
2023-04-16T10:57:18.994Z,9.00
2023-04-16T10:59:48.036Z,7.60
2023-04-16T11:02:18.809Z,8.90
2023-04-16T11:04:48.066Z,8.70
2023-04-16T11:07:18.128Z,14.00
2023-04-16T11:10:03.601Z,8.40
2023-04-16T11:12:48.627Z,8.00
2023-04-16T11:15:18.720Z,7.20
2023-04-16T11:17:47.778Z,7.60
2023-04-16T11:20:20.736Z,12.10
2023-04-16T11:22:54.055Z,10.80
2023-04-16T11:25:23.539Z,6.20
2023-04-16T11:27:53.228Z,7.30
2023-04-16T11:30:33.152Z,5.50
2023-04-16T11:33:04.200Z,7.30
2023-04-16T11:35:30.937Z,6.10
2023-04-16T11:37:58.133Z,7.00
2023-04-16T11:40:28.782Z,3.60
2023-04-16T11:43:02.281Z,3.50
2023-04-16T11:45:29.230Z,4.60
2023-04-16T11:47:57.169Z,4.30
2023-04-16T11:50:28.129Z,6.90
2023-04-16T11:53:02.442Z,4.80
2023-04-16T11:55:29.183Z,5.80
2023-04-16T11:57:56.042Z,4.50
2023-04-16T12:00:24.621Z,5.10
2023-04-16T12:02:54.600Z,9.20
2023-04-16T12:05:40.827Z,6.40
2023-04-16T12:08:09.960Z,6.30
2023-04-16T12:10:54.289Z,5.50
2023-04-16T12:13:21.042Z,4.70
2023-04-16T12:15:52.773Z,3.90
2023-04-16T12:18:26.220Z,4.10
2023-04-16T12:20:53.104Z,4.00
2023-04-16T12:23:25.711Z,4.50
2023-04-16T12:25:52.558Z,4.80
2023-04-16T12:28:34.336Z,4.00
2023-04-16T12:31:02.150Z,4.90
2023-04-16T12:33:28.876Z,5.50
2023-04-16T12:35:55.748Z,5.00
2023-04-16T12:38:24.451Z,4.40
2023-04-16T12:40:55.800Z,4.90
2023-04-16T12:43:23.087Z,3.70
2023-04-16T12:45:54.036Z,8.50
2023-04-16T12:48:21.120Z,3.90
2023-04-16T12:50:47.853Z,3.50
2023-04-16T12:53:14.415Z,4.20
2023-04-16T12:55:41.117Z,3.00
2023-04-16T12:58:09.790Z,3.30
2023-04-16T13:00:37.792Z,3.70
2023-04-16T13:03:04.393Z,3.90
2023-04-16T13:05:30.993Z,5.10
2023-04-16T13:07:57.527Z,5.50
2023-04-16T13:10:24.361Z,4.40
2023-04-16T13:12:50.953Z,5.60
2023-04-16T13:15:17.631Z,4.90
2023-04-16T13:17:44.416Z,6.80
2023-04-16T13:20:11.325Z,5.20
2023-04-16T13:22:38.556Z,5.20
2023-04-16T13:25:06.010Z,5.10
2023-04-16T13:27:32.644Z,4.20
2023-04-16T13:29:59.196Z,5.10
2023-04-16T13:32:26.058Z,4.60
2023-04-16T13:34:52.618Z,4.80
2023-04-16T13:37:19.397Z,4.60
2023-04-16T13:39:46.790Z,4.80
2023-04-16T13:42:13.536Z,4.40
2023-04-16T13:44:40.473Z,5.00
2023-04-16T13:47:07.827Z,4.50
2023-04-16T13:49:35.914Z,4.10
2023-04-16T13:52:03.874Z,7.40
2023-04-16T13:54:30.653Z,10.00
2023-04-16T13:56:57.220Z,9.40
2023-04-16T13:59:23.787Z,11.20
2023-04-16T14:01:50.680Z,5.80
2023-04-16T14:04:18.208Z,4.70
2023-04-16T14:06:44.914Z,4.40
2023-04-16T14:09:11.775Z,4.20
2023-04-16T14:11:38.498Z,4.90
2023-04-16T14:14:06.752Z,4.80
2023-04-16T14:16:34.013Z,5.20
2023-04-16T14:19:00.911Z,4.50
2023-04-16T14:21:28.072Z,4.30
2023-04-16T14:23:54.847Z,4.50
2023-04-16T14:26:21.957Z,4.20
2023-04-16T14:28:51.021Z,4.90
2023-04-16T14:31:19.417Z,5.30
2023-04-16T14:33:46.596Z,4.20
2023-04-16T14:36:13.664Z,4.20
2023-04-16T14:38:45.188Z,4.60
2023-04-16T14:41:12.688Z,4.70
2023-04-16T14:43:41.079Z,5.50
2023-04-16T14:46:07.852Z,5.10
2023-04-16T14:48:35.764Z,4.40
2023-04-16T14:51:02.566Z,4.10
2023-04-16T14:53:29.118Z,5.70
2023-04-16T14:55:58.380Z,4.60
2023-04-16T14:58:25.639Z,4.30
2023-04-16T15:00:52.311Z,4.00
2023-04-16T15:03:19.379Z,4.40
2023-04-16T15:05:51.612Z,4.60
2023-04-16T15:08:18.239Z,5.70
2023-04-16T15:10:45.150Z,5.90
2023-04-16T15:13:11.713Z,4.40
2023-04-16T15:15:38.278Z,4.90
2023-04-16T15:18:06.056Z,3.90
2023-04-16T15:20:32.862Z,5.60
2023-04-16T15:22:59.578Z,4.50
2023-04-16T15:25:26.238Z,5.30
2023-04-16T15:27:53.094Z,4.80
2023-04-16T15:30:20.051Z,4.40
2023-04-16T15:32:47.060Z,4.70
2023-04-16T15:35:13.846Z,6.90
2023-04-16T15:37:41.275Z,4.40
2023-04-16T15:40:08.619Z,4.60
2023-04-16T15:42:35.679Z,4.00
2023-04-16T15:45:03.352Z,6.20
2023-04-16T15:47:30.640Z,4.60
2023-04-16T15:49:57.725Z,5.10
2023-04-16T15:52:24.936Z,5.20
2023-04-16T15:54:52.240Z,5.40
2023-04-16T15:57:19.021Z,5.90
2023-04-16T15:59:55.842Z,6.60
2023-04-16T16:02:33.722Z,6.50
2023-04-16T16:05:01.341Z,6.80
2023-04-16T16:07:28.811Z,6.20
2023-04-16T16:09:56.403Z,6.60
2023-04-16T16:12:24.540Z,6.00
2023-04-16T16:14:51.949Z,7.10
2023-04-16T16:17:20.421Z,7.90
2023-04-16T16:21:46.664Z,13.10
2023-04-16T16:24:15.978Z,10.00
2023-04-16T16:26:44.447Z,12.00
2023-04-16T16:29:12.777Z,10.00
2023-04-16T16:31:41.007Z,9.20
2023-04-16T16:34:14.736Z,10.60
2023-04-16T16:36:49.434Z,10.20
2023-04-16T16:39:17.581Z,12.60
2023-04-16T16:41:45.723Z,16.20
2023-04-16T16:44:13.627Z,12.90
2023-04-16T16:46:41.742Z,11.50
2023-04-16T16:49:10.180Z,12.40
2023-04-16T16:51:39.201Z,12.30
2023-04-16T16:54:07.947Z,10.40
2023-04-16T16:56:35.890Z,12.00
2023-04-16T16:59:04.075Z,14.40
2023-04-16T17:01:32.521Z,10.90
2023-04-16T17:04:00.651Z,13.40
2023-04-16T17:06:29.169Z,12.20
2023-04-16T17:08:57.131Z,12.10
2023-04-16T17:11:27.478Z,16.10
2023-04-16T17:13:55.366Z,12.60
2023-04-16T17:16:24.182Z,13.50
2023-04-16T17:18:52.514Z,12.10
2023-04-16T17:21:21.043Z,14.10
2023-04-16T17:23:48.994Z,12.30
2023-04-16T17:26:18.158Z,11.80
2023-04-16T17:28:51.179Z,12.00
2023-04-16T17:31:20.369Z,11.70
2023-04-16T17:33:51.254Z,11.40
2023-04-16T17:36:21.546Z,10.20
2023-04-16T17:38:51.164Z,11.80
2023-04-16T17:41:28.342Z,12.40
2023-04-16T17:43:56.770Z,11.30
2023-04-16T17:46:25.856Z,16.70
2023-04-16T17:48:55.034Z,15.80
2023-04-16T17:51:23.680Z,12.60
2023-04-16T17:53:52.296Z,12.80
2023-04-16T17:56:20.750Z,12.10
2023-04-16T17:58:49.404Z,12.50
2023-04-16T18:01:17.765Z,14.00
2023-04-16T18:03:46.601Z,14.90
2023-04-16T18:06:15.294Z,13.90
2023-04-16T18:08:43.918Z,12.50
2023-04-16T18:11:12.409Z,15.70
2023-04-16T18:13:41.570Z,14.90
2023-04-16T18:16:17.451Z,13.30
2023-04-16T18:18:46.808Z,15.60
2023-04-16T18:21:16.371Z,16.20
2023-04-16T18:23:45.276Z,18.70
2023-04-16T18:26:17.777Z,19.10
2023-04-16T18:28:47.097Z,16.50
2023-04-16T18:31:16.013Z,19.20
2023-04-16T18:33:56.544Z,18.90
2023-04-16T18:36:27.439Z,17.90
2023-04-16T18:39:02.190Z,15.70
2023-04-16T18:41:32.130Z,16.00
2023-04-16T18:44:01.183Z,18.30
2023-04-16T18:46:30.034Z,15.10
2023-04-16T18:49:02.690Z,14.80
2023-04-16T18:51:32.009Z,17.00
2023-04-16T18:54:00.690Z,15.30
2023-04-16T18:56:31.671Z,14.40
2023-04-16T18:59:00.243Z,16.30
2023-04-16T19:01:28.915Z,16.30
2023-04-16T19:03:57.715Z,12.70
2023-04-16T19:06:28.278Z,15.70
2023-04-16T19:08:58.066Z,13.20
2023-04-16T19:11:27.643Z,14.20
2023-04-16T19:13:56.484Z,18.80
2023-04-16T19:16:25.368Z,23.40
2023-04-16T19:18:54.628Z,17.10
2023-04-16T19:21:23.374Z,22.70
2023-04-16T19:23:52.495Z,15.80
2023-04-16T19:26:21.592Z,18.60
2023-04-16T19:28:50.238Z,16.50
2023-04-16T19:31:18.833Z,15.30
2023-04-16T19:33:47.525Z,20.50
2023-04-16T19:36:16.217Z,18.70
2023-04-16T19:38:44.787Z,15.00
2023-04-16T19:41:13.701Z,15.70
2023-04-16T19:43:43.199Z,16.90
2023-04-16T19:46:11.938Z,17.40
2023-04-16T19:48:40.380Z,16.40
2023-04-16T19:51:09.128Z,21.80
2023-04-16T19:53:37.881Z,19.20
2023-04-16T19:56:06.572Z,24.40
2023-04-16T19:58:35.331Z,16.50
2023-04-16T20:01:11.190Z,21.30
2023-04-16T20:06:12.744Z,20.70
2023-04-16T20:08:41.412Z,14.90
2023-04-16T20:11:09.836Z,17.50
2023-04-16T20:13:38.672Z,19.20
2023-04-16T20:16:09.531Z,18.50
2023-04-16T20:18:41.567Z,20.00
2023-04-16T20:21:10.120Z,18.90
2023-04-16T20:23:38.776Z,13.90
2023-04-16T20:26:07.099Z,15.90
2023-04-16T20:28:34.975Z,21.10
2023-04-16T20:31:03.144Z,16.10
2023-04-16T20:33:31.058Z,19.10
2023-04-16T20:35:59.081Z,14.40
2023-04-16T20:38:29.658Z,15.60
2023-04-16T20:41:10.413Z,16.70
2023-04-16T20:43:40.709Z,17.50
2023-04-16T20:46:09.585Z,15.60
2023-04-16T20:48:39.093Z,20.70
2023-04-16T20:51:10.700Z,14.60
2023-04-16T20:53:38.708Z,16.40
2023-04-16T20:56:07.252Z,18.40
2023-04-16T20:58:35.464Z,14.90
2023-04-16T21:01:04.792Z,17.30
2023-04-16T21:03:32.980Z,22.40
2023-04-16T21:06:02.467Z,18.20
2023-04-16T21:08:30.460Z,20.70
2023-04-16T21:10:58.409Z,19.60
2023-04-16T21:13:26.457Z,24.60
2023-04-16T21:15:54.960Z,25.50
2023-04-16T21:18:22.996Z,27.20
2023-04-16T21:20:51.115Z,24.30
2023-04-16T21:23:19.347Z,28.00
2023-04-16T21:25:56.340Z,22.40
2023-04-16T21:28:24.375Z,23.50
2023-04-16T21:30:53.809Z,19.30
2023-04-16T21:33:22.069Z,24.00
2023-04-16T21:35:53.786Z,25.90
2023-04-16T21:38:22.113Z,19.50
2023-04-16T21:40:53.709Z,23.40
2023-04-16T21:43:24.803Z,22.00
2023-04-16T21:45:56.098Z,21.40
2023-04-16T21:48:24.020Z,24.60
2023-04-16T21:50:59.134Z,19.10
2023-04-16T21:53:32.041Z,20.50
2023-04-16T21:56:00.313Z,18.90
2023-04-16T21:58:28.221Z,20.60
2023-04-16T22:00:56.332Z,24.70
2023-04-16T22:03:27.592Z,20.90
2023-04-16T22:06:01.479Z,18.50
2023-04-16T22:08:30.448Z,19.20
2023-04-16T22:11:00.361Z,18.70
2023-04-16T22:13:32.288Z,18.10
2023-04-16T22:16:01.731Z,15.00
2023-04-16T22:18:33.742Z,16.20
2023-04-16T22:21:02.105Z,16.20
2023-04-16T22:23:30.169Z,17.50
2023-04-16T22:25:58.041Z,15.70
2023-04-16T22:28:26.064Z,14.60
2023-04-16T22:30:54.025Z,17.80
2023-04-16T22:33:21.926Z,18.30
2023-04-16T22:35:49.901Z,16.80
2023-04-16T22:38:17.891Z,16.70
2023-04-16T22:40:48.278Z,15.30
2023-04-16T22:43:17.725Z,15.40
2023-04-16T22:45:46.448Z,15.10
2023-04-16T22:48:14.481Z,16.10
2023-04-16T22:50:48.613Z,15.40
2023-04-16T22:53:16.588Z,16.30
2023-04-16T22:55:44.581Z,17.60
2023-04-16T22:58:12.473Z,18.70
2023-04-16T23:00:40.753Z,14.20
2023-04-16T23:03:08.976Z,19.20
2023-04-16T23:05:36.993Z,17.50
2023-04-16T23:08:05.191Z,14.90
2023-04-16T23:10:33.238Z,14.20
2023-04-16T23:13:01.604Z,17.00
2023-04-16T23:15:29.695Z,16.90
2023-04-16T23:17:58.174Z,17.50
2023-04-16T23:20:26.200Z,15.00
2023-04-16T23:22:54.237Z,15.90
2023-04-16T23:25:25.571Z,16.10
2023-04-16T23:27:53.440Z,15.70
2023-04-16T23:30:21.467Z,15.20
2023-04-16T23:32:49.448Z,16.20
2023-04-16T23:35:22.812Z,14.80
2023-04-16T23:37:50.916Z,17.40
2023-04-16T23:40:18.824Z,15.10
2023-04-16T23:42:46.726Z,16.90
2023-04-16T23:45:14.617Z,15.80
2023-04-16T23:47:42.554Z,16.40
2023-04-16T23:50:11.049Z,13.80
2023-04-16T23:52:39.100Z,12.70
2023-04-16T23:55:07.396Z,14.10
2023-04-16T23:57:35.394Z,14.60
